createdAt,value
2023-03-06T00:01:26.993Z,66.57
2023-03-06T00:03:57.586Z,66.51
2023-03-06T00:06:28.144Z,66.62
2023-03-06T00:08:58.548Z,66.57
2023-03-06T00:11:28.993Z,66.57
2023-03-06T00:13:59.390Z,66.50
2023-03-06T00:16:29.888Z,66.60
2023-03-06T00:19:00.310Z,66.62
2023-03-06T00:21:30.724Z,66.78
2023-03-06T00:24:01.102Z,66.79
2023-03-06T00:26:31.535Z,66.66
2023-03-06T00:29:02.404Z,66.83
2023-03-06T00:31:33.065Z,66.84
2023-03-06T00:34:03.615Z,66.92
2023-03-06T00:36:34.226Z,67.03
2023-03-06T00:39:04.716Z,67.03
2023-03-06T00:41:35.253Z,66.92
2023-03-06T00:44:05.846Z,67.08
2023-03-06T00:46:36.666Z,67.09
2023-03-06T00:49:07.182Z,67.05
2023-03-06T00:51:37.817Z,67.09
2023-03-06T00:54:08.238Z,67.03
2023-03-06T00:56:38.782Z,67.15
2023-03-06T00:59:09.249Z,67.15
2023-03-06T01:01:39.679Z,67.14
2023-03-06T01:04:10.192Z,67.26
2023-03-06T01:06:40.673Z,67.23
2023-03-06T01:09:11.032Z,67.29
2023-03-06T01:11:41.805Z,67.44
2023-03-06T01:14:12.621Z,67.44
2023-03-06T01:16:43.299Z,67.55
2023-03-06T01:19:15.435Z,67.57
2023-03-06T01:21:49.090Z,67.44
2023-03-06T01:24:19.510Z,67.54
2023-03-06T01:26:49.992Z,67.54
2023-03-06T01:29:20.456Z,67.53
2023-03-06T01:31:50.944Z,67.61
2023-03-06T01:34:21.753Z,67.74
2023-03-06T01:36:52.152Z,67.91
2023-03-06T01:39:22.507Z,67.98
2023-03-06T01:41:52.951Z,68.20
2023-03-06T01:50:19.289Z,68.39
2023-03-06T01:52:51.931Z,68.55
2023-03-06T01:55:24.521Z,68.61
2023-03-06T01:57:57.616Z,68.95
2023-03-06T02:00:29.580Z,69.11
2023-03-06T02:03:05.651Z,69.10
2023-03-06T02:05:36.172Z,69.24
2023-03-06T02:08:07.788Z,69.37
2023-03-06T02:10:38.317Z,69.68
2023-03-06T02:13:08.664Z,69.79
2023-03-06T02:15:39.436Z,70.12
2023-03-06T02:18:09.883Z,70.09
2023-03-06T02:20:46.511Z,70.36
2023-03-06T02:23:26.233Z,70.49
2023-03-06T02:25:56.980Z,70.68
2023-03-06T02:28:28.145Z,70.83
2023-03-06T02:30:58.993Z,70.89
2023-03-06T02:33:30.589Z,71.09
2023-03-06T02:36:04.074Z,71.23
2023-03-06T02:38:39.094Z,71.34
2023-03-06T02:41:10.928Z,71.35
2023-03-06T02:43:42.439Z,71.40
2023-03-06T02:46:13.029Z,71.41
2023-03-06T02:48:43.379Z,71.49
2023-03-06T02:51:13.789Z,71.42
2023-03-06T02:53:44.458Z,71.54
2023-03-06T02:56:15.123Z,71.56
2023-03-06T02:58:45.702Z,71.40
2023-03-06T03:01:16.167Z,71.45
2023-03-06T03:03:47.425Z,71.64
2023-03-06T03:06:18.072Z,71.54
2023-03-06T03:08:48.848Z,71.65
2023-03-06T03:11:19.845Z,71.60
2023-03-06T03:13:50.710Z,71.66
2023-03-06T03:16:25.329Z,71.74
2023-03-06T03:18:55.944Z,71.96
2023-03-06T03:21:26.600Z,72.01
2023-03-06T03:23:57.975Z,72.12
2023-03-06T03:26:30.292Z,72.23
2023-03-06T03:29:07.666Z,72.23
2023-03-06T03:31:38.135Z,72.13
2023-03-06T03:34:09.368Z,72.23
2023-03-06T03:36:41.827Z,72.21
2023-03-06T03:39:12.866Z,72.26
2023-03-06T03:41:44.204Z,72.28
2023-03-06T03:44:15.190Z,72.52
2023-03-06T03:46:46.118Z,72.58
2023-03-06T03:49:20.506Z,72.60
2023-03-06T03:51:51.067Z,72.57
2023-03-06T03:54:22.134Z,72.68
2023-03-06T03:56:53.085Z,72.74
2023-03-06T03:59:27.720Z,72.73
2023-03-06T04:02:12.511Z,72.78
2023-03-06T04:04:50.461Z,72.79
2023-03-06T04:07:21.048Z,72.89
2023-03-06T04:09:51.677Z,72.99
2023-03-06T04:12:22.328Z,73.02
2023-03-06T04:14:52.755Z,73.06
2023-03-06T04:17:23.231Z,73.20
2023-03-06T04:19:54.612Z,73.48
2023-03-06T04:22:25.475Z,73.49
2023-03-06T04:24:56.246Z,73.64
2023-03-06T04:27:26.792Z,73.67
2023-03-06T04:29:57.321Z,73.63
2023-03-06T04:32:28.209Z,73.65
2023-03-06T04:34:59.023Z,73.77
2023-03-06T04:37:31.625Z,73.76
2023-03-06T04:40:02.641Z,73.80
2023-03-06T04:42:33.390Z,73.87
2023-03-06T04:45:03.901Z,73.79
2023-03-06T04:47:34.437Z,73.84
2023-03-06T04:50:05.581Z,73.81
2023-03-06T04:52:36.130Z,73.91
2023-03-06T04:55:08.730Z,73.89
2023-03-06T04:57:40.194Z,73.94
2023-03-06T05:00:16.482Z,73.94
2023-03-06T05:02:47.253Z,74.00
2023-03-06T05:05:18.212Z,73.97
2023-03-06T05:07:48.615Z,73.98
2023-03-06T05:10:19.586Z,73.87
2023-03-06T05:12:50.014Z,73.92
2023-03-06T05:15:20.791Z,73.87
2023-03-06T05:17:51.217Z,73.94
2023-03-06T05:20:21.786Z,74.11
2023-03-06T05:22:52.431Z,74.07
2023-03-06T05:25:23.071Z,74.01
2023-03-06T05:27:53.555Z,74.09
2023-03-06T05:30:24.249Z,73.93
2023-03-06T05:32:54.642Z,73.91
2023-03-06T05:35:26.046Z,73.96
2023-03-06T05:37:56.664Z,73.79
2023-03-06T05:40:27.067Z,73.85
2023-03-06T05:42:57.560Z,73.71
2023-03-06T05:45:27.990Z,73.46
2023-03-06T05:47:58.353Z,73.17
2023-03-06T05:50:28.712Z,73.02
2023-03-06T05:52:59.052Z,72.77
2023-03-06T05:55:29.340Z,72.80
2023-03-06T05:57:59.639Z,72.78
2023-03-06T06:00:30.246Z,72.79
2023-03-06T06:03:03.081Z,72.77
2023-03-06T06:05:33.829Z,72.85
2023-03-06T06:08:04.414Z,72.92
2023-03-06T06:10:34.912Z,73.06
2023-03-06T06:13:05.446Z,73.08
2023-03-06T06:15:35.971Z,73.12
2023-03-06T06:18:06.526Z,73.08
2023-03-06T06:20:37.569Z,73.12
2023-03-06T06:23:08.589Z,73.24
2023-03-06T06:25:39.292Z,73.36
2023-03-06T06:28:09.589Z,73.47
2023-03-06T06:30:39.921Z,73.49
2023-03-06T06:33:12.897Z,73.63
2023-03-06T06:35:43.804Z,73.57
2023-03-06T06:38:14.136Z,73.64
2023-03-06T06:40:49.293Z,73.60
2023-03-06T06:43:29.031Z,73.72
2023-03-06T06:46:24.259Z,73.82
2023-03-06T06:48:54.516Z,73.86
2023-03-06T06:51:25.338Z,73.84
2023-03-06T06:53:55.719Z,73.80
2023-03-06T06:56:26.103Z,73.78
2023-03-06T06:59:15.278Z,73.95
2023-03-06T07:01:46.689Z,73.99
2023-03-06T07:04:18.050Z,74.02
2023-03-06T07:06:48.705Z,73.94
2023-03-06T07:09:20.039Z,73.73
2023-03-06T07:11:50.903Z,73.56
2023-03-06T07:14:21.563Z,73.56
2023-03-06T07:16:52.043Z,73.44
2023-03-06T07:19:22.852Z,73.18
2023-03-06T07:21:53.241Z,72.93
2023-03-06T07:24:24.564Z,72.85
2023-03-06T07:26:55.068Z,72.67
2023-03-06T07:29:25.397Z,72.34
2023-03-06T07:31:56.400Z,72.05
2023-03-06T07:34:26.739Z,71.78
2023-03-06T07:36:57.142Z,71.60
2023-03-06T07:39:28.034Z,71.33
2023-03-06T07:41:58.793Z,71.39
2023-03-06T07:44:29.299Z,70.93
2023-03-06T07:47:00.045Z,70.54
2023-03-06T07:49:30.439Z,70.31
2023-03-06T07:52:01.568Z,70.35
2023-03-06T07:54:32.790Z,69.83
2023-03-06T07:57:03.847Z,69.64
2023-03-06T07:59:34.342Z,68.99
2023-03-06T08:02:05.025Z,68.68
2023-03-06T08:04:35.772Z,68.70
2023-03-06T08:07:06.326Z,68.18
2023-03-06T08:09:37.261Z,68.40
2023-03-06T08:12:09.805Z,68.18
2023-03-06T08:14:40.647Z,67.54
2023-03-06T08:17:11.098Z,66.70
2023-03-06T08:19:41.424Z,66.10
2023-03-06T08:22:13.943Z,65.09
2023-03-06T08:24:44.884Z,64.22
2023-03-06T08:27:15.200Z,64.01
2023-03-06T08:29:45.772Z,63.24
2023-03-06T08:32:16.757Z,62.67
2023-03-06T08:34:47.382Z,62.58
2023-03-06T08:37:17.962Z,62.32
2023-03-06T08:39:48.814Z,62.05
2023-03-06T08:42:20.236Z,62.32
2023-03-06T08:44:53.775Z,62.65
2023-03-06T08:47:26.125Z,62.38
2023-03-06T08:50:00.507Z,62.35
2023-03-06T08:52:33.359Z,62.57
2023-03-06T08:55:06.690Z,62.23
2023-03-06T08:57:39.154Z,62.08
2023-03-06T09:00:13.108Z,62.34
2023-03-06T09:21:30.467Z,63.99
2023-03-06T09:27:31.155Z,63.87
2023-03-06T09:30:12.425Z,64.25
2023-03-06T09:32:47.470Z,64.48
2023-03-06T09:36:01.279Z,65.31
2023-03-06T09:39:01.246Z,66.14
2023-03-06T09:51:49.130Z,67.31
2023-03-06T10:02:06.765Z,68.05
2023-03-06T10:30:02.540Z,59.65
2023-03-06T10:42:06.629Z,57.34
2023-03-06T11:19:40.152Z,45.34
2023-03-06T11:46:22.143Z,47.79
2023-03-06T12:10:52.195Z,45.90
2023-03-06T12:55:52.133Z,48.38
2023-03-06T12:58:43.993Z,48.96
2023-03-06T13:01:19.915Z,49.23
2023-03-06T13:04:04.962Z,49.39
2023-03-06T13:06:58.170Z,50.40
2023-03-06T13:09:34.234Z,50.53
2023-03-06T13:12:27.171Z,51.09
2023-03-06T13:15:02.377Z,51.55
2023-03-06T13:17:37.608Z,52.25
2023-03-06T13:20:35.222Z,52.95
2023-03-06T13:23:42.648Z,53.10
2023-03-06T13:26:34.129Z,54.06
2023-03-06T13:29:04.515Z,54.88
2023-03-06T13:32:04.924Z,55.07
2023-03-06T13:34:39.709Z,54.79
2023-03-06T13:37:43.443Z,55.16
2023-03-06T13:40:36.527Z,55.07
2023-03-06T13:43:25.107Z,55.27
2023-03-06T13:45:55.925Z,55.52
2023-03-06T13:48:44.235Z,56.00
2023-03-06T13:51:26.005Z,56.13
2023-03-06T13:54:25.525Z,55.35
2023-03-06T13:57:26.308Z,53.80
2023-03-06T14:00:19.032Z,54.13
2023-03-06T14:03:25.190Z,54.14
2023-03-06T14:05:55.559Z,53.62
2023-03-06T14:08:27.730Z,53.68
2023-03-06T14:11:13.509Z,52.87
2023-03-06T14:13:48.316Z,52.49
2023-03-06T14:16:23.390Z,51.80
2023-03-06T14:18:55.329Z,51.74
2023-03-06T14:21:30.677Z,51.24
2023-03-06T14:24:02.983Z,50.69
2023-03-06T14:26:35.600Z,50.89
2023-03-06T14:29:06.199Z,50.54
2023-03-06T14:31:39.207Z,50.32
2023-03-06T14:34:15.174Z,50.56
2023-03-06T14:36:47.551Z,50.55
2023-03-06T14:39:21.284Z,50.29
2023-03-06T14:41:52.133Z,50.57
2023-03-06T14:44:26.289Z,50.47
2023-03-06T14:46:58.505Z,50.65
2023-03-06T14:49:29.042Z,50.63
2023-03-06T14:52:01.334Z,51.22
2023-03-06T14:54:34.384Z,51.21
2023-03-06T14:57:06.818Z,51.05
2023-03-06T14:59:42.330Z,50.86
2023-03-06T15:02:16.154Z,51.07
2023-03-06T15:04:48.931Z,51.46
2023-03-06T15:07:22.746Z,51.94
2023-03-06T15:09:54.447Z,51.97
2023-03-06T15:12:39.619Z,52.01
2023-03-06T15:15:28.680Z,52.00
2023-03-06T15:17:59.300Z,52.61
2023-03-06T15:20:51.432Z,52.78
2023-03-06T15:23:27.218Z,52.94
2023-03-06T15:26:00.220Z,53.40
2023-03-06T15:28:33.727Z,53.25
2023-03-06T15:31:03.745Z,53.56
2023-03-06T15:33:34.174Z,53.60
2023-03-06T15:36:06.836Z,53.19
2023-03-06T15:38:39.866Z,53.50
2023-03-06T15:41:24.095Z,53.66
2023-03-06T15:43:54.535Z,53.95
2023-03-06T15:46:24.946Z,54.16
2023-03-06T15:48:56.792Z,53.90
2023-03-06T15:51:27.740Z,54.01
2023-03-06T15:54:09.785Z,54.32
2023-03-06T15:56:44.244Z,54.27
2023-03-06T15:59:19.087Z,54.03
2023-03-06T16:01:49.624Z,54.02
2023-03-06T16:04:20.421Z,53.94
2023-03-06T16:06:50.731Z,53.92
2023-03-06T16:09:22.659Z,54.24
2023-03-06T16:11:53.165Z,54.20
2023-03-06T16:14:24.442Z,54.52
2023-03-06T16:16:57.518Z,54.07
2023-03-06T16:19:28.479Z,54.53
2023-03-06T16:21:59.194Z,54.46
2023-03-06T16:24:29.557Z,54.46
2023-03-06T16:27:01.490Z,54.48
2023-03-06T16:29:32.221Z,54.49
2023-03-06T16:32:02.794Z,54.40
2023-03-06T16:34:33.166Z,54.52
2023-03-06T16:37:03.441Z,54.83
2023-03-06T16:39:33.766Z,55.04
2023-03-06T16:42:04.026Z,55.39
2023-03-06T16:44:34.363Z,55.35
2023-03-06T16:47:05.543Z,55.25
2023-03-06T16:49:36.033Z,55.49
2023-03-06T16:52:07.585Z,55.57
2023-03-06T16:54:37.845Z,56.15
2023-03-06T16:57:08.211Z,56.17
2023-03-06T16:59:38.498Z,56.22
2023-03-06T17:02:09.705Z,56.44
2023-03-06T17:04:40.148Z,56.58
2023-03-06T17:07:10.428Z,56.66
2023-03-06T17:09:40.763Z,56.70
2023-03-06T17:12:11.776Z,56.74
2023-03-06T17:14:42.607Z,56.97
2023-03-06T17:17:13.028Z,57.26
2023-03-06T17:19:47.083Z,57.30
2023-03-06T17:22:17.950Z,57.36
2023-03-06T17:24:49.938Z,57.36
2023-03-06T17:27:20.814Z,57.64
2023-03-06T17:29:51.139Z,57.81
2023-03-06T17:32:21.755Z,57.82
2023-03-06T17:34:52.228Z,57.88
2023-03-06T17:37:23.115Z,57.92
2023-03-06T17:39:53.723Z,57.93
2023-03-06T17:42:24.191Z,58.06
2023-03-06T17:44:55.434Z,58.15
2023-03-06T17:47:26.261Z,58.21
2023-03-06T17:49:56.962Z,58.17
2023-03-06T17:52:27.980Z,58.36
2023-03-06T17:54:58.617Z,58.51
2023-03-06T17:57:29.252Z,58.70
2023-03-06T17:59:59.910Z,58.74
2023-03-06T18:02:30.423Z,58.45
2023-03-06T18:05:00.774Z,58.57
2023-03-06T18:07:32.439Z,58.54
2023-03-06T18:10:02.935Z,58.67
2023-03-06T18:12:33.454Z,58.45
2023-03-06T18:15:05.203Z,58.74
2023-03-06T18:17:36.140Z,58.86
2023-03-06T18:20:07.775Z,58.78
2023-03-06T18:22:38.318Z,58.97
2023-03-06T18:25:10.228Z,59.05
2023-03-06T18:27:40.622Z,59.26
2023-03-06T18:30:12.929Z,59.20
2023-03-06T18:32:43.471Z,59.45
2023-03-06T18:35:13.988Z,59.46
2023-03-06T18:37:44.385Z,59.75
2023-03-06T18:40:16.857Z,59.97
2023-03-06T18:42:48.039Z,60.08
2023-03-06T18:45:18.754Z,60.41
2023-03-06T18:47:49.216Z,60.68
2023-03-06T18:50:20.125Z,60.88
2023-03-06T18:52:50.387Z,61.18
2023-03-06T18:55:21.478Z,61.46
2023-03-06T18:57:51.811Z,61.70
2023-03-06T19:00:23.696Z,61.79
2023-03-06T19:02:54.292Z,62.05
2023-03-06T19:05:25.939Z,62.38
2023-03-06T19:07:57.649Z,62.64
2023-03-06T19:10:30.187Z,62.79
2023-03-06T19:13:00.800Z,62.85
2023-03-06T19:15:31.495Z,63.06
2023-03-06T19:18:01.896Z,63.14
2023-03-06T19:20:32.470Z,63.23
2023-03-06T19:23:03.262Z,63.06
2023-03-06T19:25:33.874Z,63.29
2023-03-06T19:28:05.819Z,63.27
2023-03-06T19:30:36.218Z,63.28
2023-03-06T19:33:07.165Z,63.33
2023-03-06T19:35:37.715Z,63.28
2023-03-06T19:38:09.901Z,63.35
2023-03-06T19:40:40.498Z,63.38
2023-03-06T19:43:12.563Z,63.40
2023-03-06T19:45:45.275Z,63.54
2023-03-06T19:48:16.136Z,63.63
2023-03-06T19:50:47.677Z,63.89
2023-03-06T19:53:18.435Z,64.11
2023-03-06T19:55:49.719Z,64.50
2023-03-06T19:58:21.293Z,64.76
2023-03-06T20:00:52.100Z,64.86
2023-03-06T20:03:22.749Z,65.03
2023-03-06T20:05:53.150Z,65.27
2023-03-06T20:08:23.670Z,65.62
2023-03-06T20:10:55.072Z,65.76
2023-03-06T20:13:26.164Z,65.99
2023-03-06T20:15:56.983Z,66.13
2023-03-06T20:18:28.208Z,66.44
2023-03-06T20:21:03.782Z,66.62
2023-03-06T20:23:35.760Z,66.54
2023-03-06T20:26:09.455Z,66.64
2023-03-06T20:28:40.884Z,66.76
2023-03-06T20:31:13.323Z,66.88
2023-03-06T20:33:43.974Z,67.01
2023-03-06T20:36:17.018Z,67.13
2023-03-06T20:38:48.559Z,67.12
2023-03-06T20:41:22.283Z,67.09
2023-03-06T20:43:55.277Z,66.98
2023-03-06T20:46:27.976Z,67.14
2023-03-06T20:48:59.649Z,67.50
2023-03-06T20:51:33.050Z,67.34
2023-03-06T20:54:05.724Z,67.35
2023-03-06T20:56:41.842Z,67.36
2023-03-06T20:59:14.982Z,67.51
2023-03-06T21:01:47.974Z,67.85
2023-03-06T21:04:20.830Z,67.99
2023-03-06T21:06:55.465Z,68.23
2023-03-06T21:13:40.916Z,68.47
2023-03-06T21:16:15.936Z,68.62
2023-03-06T21:18:48.187Z,68.92
2023-03-06T21:21:20.824Z,68.98
2023-03-06T21:23:53.264Z,69.12
2023-03-06T21:30:18.919Z,69.51
2023-03-06T21:32:50.910Z,69.98
2023-03-06T21:35:23.914Z,69.97
2023-03-06T21:37:55.030Z,70.05
2023-03-06T21:40:26.224Z,70.29
2023-03-06T21:48:41.680Z,70.55
2023-03-06T21:51:15.614Z,71.02
2023-03-06T21:53:47.879Z,71.03
2023-03-06T21:56:20.507Z,71.15
2023-03-06T21:58:51.131Z,71.24
2023-03-06T22:01:23.888Z,71.37
2023-03-06T22:03:54.492Z,71.59
2023-03-06T22:06:26.695Z,71.59
2023-03-06T22:08:59.047Z,71.47
2023-03-06T22:11:31.484Z,71.65
2023-03-06T22:14:02.021Z,71.66
2023-03-06T22:16:32.727Z,71.65
2023-03-06T22:19:03.342Z,71.70
2023-03-06T22:21:33.875Z,71.67
2023-03-06T22:24:04.689Z,71.74
2023-03-06T22:26:35.143Z,71.81
2023-03-06T22:29:05.709Z,71.74
2023-03-06T22:31:36.107Z,71.83
2023-03-06T22:34:06.732Z,71.85
2023-03-06T22:36:37.203Z,71.74
2023-03-06T22:39:07.667Z,71.83
2023-03-06T22:41:38.413Z,71.93
2023-03-06T22:44:09.247Z,72.17
2023-03-06T22:46:41.587Z,72.21
2023-03-06T22:49:13.584Z,72.24
2023-03-06T22:51:44.185Z,72.20
2023-03-06T22:54:14.561Z,72.22
2023-03-06T22:56:44.860Z,72.20
2023-03-06T22:59:15.412Z,72.13
2023-03-06T23:01:45.755Z,71.98
2023-03-06T23:04:16.219Z,71.78
2023-03-06T23:06:46.952Z,71.63
2023-03-06T23:09:21.471Z,71.60
2023-03-06T23:12:11.683Z,71.47
2023-03-06T23:15:00.933Z,71.33
2023-03-06T23:17:50.883Z,71.24
2023-03-06T23:20:44.766Z,71.34
2023-03-06T23:23:34.142Z,71.26
2023-03-06T23:26:04.773Z,71.27
2023-03-06T23:28:35.925Z,71.42
2023-03-06T23:31:10.718Z,71.58
2023-03-06T23:33:41.265Z,71.56
2023-03-06T23:36:13.985Z,71.52
2023-03-06T23:38:45.257Z,71.65
2023-03-06T23:41:18.073Z,71.72
2023-03-06T23:43:49.184Z,71.85
2023-03-06T23:46:20.162Z,71.88
2023-03-06T23:48:50.571Z,72.04
2023-03-06T23:51:23.013Z,72.07
2023-03-06T23:53:58.027Z,72.19
2023-03-06T23:56:29.059Z,72.43
2023-03-06T23:58:59.452Z,72.54
